Time;durP1;ratioP1;P1;durP2;ratioP2;P2;SDS_P1;SDS_P2;PMS_P1;PMS_P2;Temp;Humidity;BMP_temperature;BMP_pressure;BME280_temperature;BME280_humidity;BME280_pressure;Samples;Min_cycle;Max_cycle;Signal;HPM_P1;HPM_P2
2022/01/05 00:01:46;;;;;;;10.18;2.92;;;;;;;13.34;58.18;97056.69;4503451;31;20084;-87
2022/01/05 00:04:11;;;;;;;7.25;2.25;;;;;;;13.20;58.58;97051.81;4503407;31;20753;-87
2022/01/05 00:06:36;;;;;;;9.65;2.30;;;;;;;13.15;58.71;97045.16;4503385;31;20102;-87
2022/01/05 00:09:02;;;;;;;8.48;2.50;;;;;;;12.55;60.34;97047.16;4503292;31;20088;-87
2022/01/05 00:11:28;;;;;;;6.87;2.30;;;;;;;13.05;59.07;97052.25;4489042;31;20509;-87
2022/01/05 00:13:55;;;;;;;6.93;2.33;;;;;;;13.08;59.01;97053.81;4503248;31;20107;-87
2022/01/05 00:16:21;;;;;;;;;;;;;;;13.01;59.11;97053.53;4503533;31;20092;-87
2022/01/05 00:18:46;;;;;;;7.35;2.28;;;;;;;13.09;58.93;97063.38;4503321;31;19967;-87
2022/01/05 00:21:12;;;;;;;7.80;2.58;;;;;;;13.06;59.04;97048.66;4502983;31;20123;-88
2022/01/05 00:23:37;;;;;;;7.90;2.37;;;;;;;13.12;58.90;97048.06;4503217;31;20417;-85
2022/01/05 00:26:04;;;;;;;8.32;2.50;;;;;;;13.13;58.79;97048.91;4503246;31;20140;-86
2022/01/05 00:28:30;;;;;;;6.75;2.40;;;;;;;13.04;59.05;97040.03;4502182;31;20075;-86
2022/01/05 00:30:55;;;;;;;8.35;2.33;;;;;;;13.11;58.83;97035.81;4503134;31;20150;-86
2022/01/05 00:33:21;;;;;;;7.55;2.33;;;;;;;13.11;58.80;97042.94;4503182;31;20088;-87
2022/01/05 00:35:46;;;;;;;7.10;2.15;;;;;;;13.12;58.82;97036.69;4503131;31;20325;-87
2022/01/05 00:38:12;;;;;;;7.40;2.25;;;;;;;13.08;58.98;97025.56;4503051;31;20079;-87
2022/01/05 00:40:37;;;;;;;10.27;2.40;;;;;;;13.17;58.73;97031.78;4503038;31;20120;-86
2022/01/05 00:43:02;;;;;;;8.73;2.17;;;;;;;13.07;58.81;97031.78;4503238;31;20172;-86
2022/01/05 00:45:28;;;;;;;8.48;2.22;;;;;;;13.03;59.11;97037.53;4503096;31;20084;-86
2022/01/05 00:47:54;;;;;;;7.65;2.30;;;;;;;13.12;58.73;97034.84;4503140;31;20080;-85
2022/01/05 00:50:19;;;;;;;8.50;2.35;;;;;;;13.11;58.90;97041.09;4488824;31;20123;-85
2022/01/05 00:52:44;;;;;;;7.62;2.17;;;;;;;13.08;58.99;97044.06;4502949;31;20114;-85
2022/01/05 00:55:10;;;;;;;7.50;2.50;;;;;;;12.93;59.38;97056.88;4488738;31;20110;-86
2022/01/05 00:57:35;;;;;;;7.47;2.37;;;;;;;13.05;59.16;97046.97;4502995;31;20099;-85
2022/01/05 01:00:03;;;;;;;8.07;2.40;;;;;;;13.04;59.12;97055.88;4488660;31;20152;-86
2022/01/05 01:02:28;;;;;;;6.62;2.30;;;;;;;12.80;59.91;97048.38;4503068;31;20114;-86
2022/01/05 01:04:54;;;;;;;7.65;2.20;;;;;;;13.00;59.33;97057.16;4488667;31;20088;-85
2022/01/05 01:07:19;;;;;;;6.28;2.20;;;;;;;12.91;59.55;97053.53;4502981;31;20340;-86
2022/01/05 01:09:44;;;;;;;6.55;2.20;;;;;;;12.93;59.44;97053.41;4502323;31;20092;-87
2022/01/05 01:12:10;;;;;;;8.43;2.65;;;;;;;13.02;59.29;97055.19;4493486;31;20103;-88
2022/01/05 01:14:36;;;;;;;6.22;2.08;;;;;;;13.01;59.33;97050.87;4494070;31;20482;-88
2022/01/05 01:17:01;;;;;;;6.90;2.00;;;;;;;12.88;59.77;97056.44;4497502;31;20104;-88
2022/01/05 01:19:27;;;;;;;7.10;2.37;;;;;;;12.95;59.56;97056.72;4501741;31;20115;-87
2022/01/05 01:21:52;;;;;;;8.80;2.25;;;;;;;13.03;59.30;97048.91;4493755;31;20096;-87
2022/01/05 01:24:18;;;;;;;5.15;1.70;;;;;;;13.11;59.08;97046.41;4475320;31;20167;-87
2022/01/05 01:26:43;;;;;;;7.85;2.35;;;;;;;13.09;59.06;97044.88;4503086;31;20115;-87
2022/01/05 01:29:09;;;;;;;7.75;2.50;;;;;;;13.10;58.99;97042.09;4503001;31;20115;-87
2022/01/05 01:31:34;;;;;;;7.75;2.10;;;;;;;13.06;59.13;97029.31;4502811;31;20363;-86
2022/01/05 01:33:59;;;;;;;8.10;2.10;;;;;;;13.11;59.08;97027.06;4502760;31;20080;-86
2022/01/05 01:36:25;;;;;;;7.18;2.30;;;;;;;13.21;58.74;97022.56;4502512;31;20450;-87
2022/01/05 01:38:50;;;;;;;6.15;2.17;;;;;;;13.16;58.84;97024.84;4502295;31;20072;-86
2022/01/05 01:41:16;;;;;;;5.62;1.87;;;;;;;13.12;58.98;97018.16;4488382;31;20096;-86
2022/01/05 01:43:41;;;;;;;8.88;2.67;;;;;;;13.15;58.93;97025.78;4502558;31;20072;-86
2022/01/05 01:46:08;;;;;;;7.55;2.10;;;;;;;12.91;59.59;97031.56;4502535;31;20080;-86
2022/01/05 01:48:34;;;;;;;7.60;2.22;;;;;;;13.08;59.08;97038.78;4488317;31;20175;-86
2022/01/05 01:50:59;;;;;;;7.53;2.08;;;;;;;12.91;59.73;97027.09;4502573;31;20096;-86
2022/01/05 01:53:25;;;;;;;7.15;2.20;;;;;;;13.00;59.64;97030.72;4488181;31;20118;-86
2022/01/05 01:55:50;;;;;;;5.15;2.00;;;;;;;13.06;59.43;97022.22;4488022;31;20137;-85
2022/01/05 01:58:18;;;;;;;7.55;2.45;;;;;;;13.00;59.64;97020.16;4488104;31;20121;-86
2022/01/05 02:00:44;;;;;;;6.43;2.10;;;;;;;12.93;59.82;97009.28;4502474;31;20087;-85
2022/01/05 02:03:12;;;;;;;8.80;2.50;;;;;;;12.79;60.13;97004.47;4502435;31;20140;-85
2022/01/05 02:05:38;;;;;;;7.68;2.25;;;;;;;12.77;60.29;97011.69;4502379;31;20364;-86
2022/01/05 02:08:03;;;;;;;6.45;2.17;;;;;;;12.84;60.14;97026.00;4502320;31;20091;-85
2022/01/05 02:10:29;;;;;;;7.20;2.42;;;;;;;12.81;60.28;97023.66;4502357;31;20100;-85
2022/01/05 02:12:54;;;;;;;8.18;2.28;;;;;;;12.84;60.10;97020.72;4488003;31;20463;-85
2022/01/05 02:15:21;;;;;;;8.88;2.60;;;;;;;12.88;59.91;97019.44;4488121;31;20371;-86
2022/01/05 02:20:46;;;;;;;7.15;2.35;;;;;;;12.81;60.19;97022.81;4452719;32;20162;-85
2022/01/05 02:23:11;;;;;;;7.55;2.12;;;;;;;12.74;60.30;97015.44;4452792;32;20123;-86
2022/01/05 02:25:37;;;;;;;8.13;2.10;;;;;;;12.78;60.12;97006.25;4452780;32;20105;-85
2022/01/05 02:28:02;;;;;;;8.35;2.55;;;;;;;12.72;60.25;97009.47;4452751;32;20135;-86
2022/01/05 02:30:29;;;;;;;8.43;2.50;;;;;;;12.63;60.54;96994.44;4452769;32;20468;-86
2022/01/05 02:32:55;;;;;;;7.87;2.40;;;;;;;12.71;60.25;96994.59;4439856;32;20093;-86
2022/01/05 02:35:21;;;;;;;9.45;2.10;;;;;;;12.56;60.77;96999.47;4452540;32;20157;-86
2022/01/05 02:37:52;;;;;;;6.45;1.92;;;;;;;12.60;60.52;96989.47;4439584;32;20112;-87
2022/01/05 02:40:20;;;;;;;8.95;2.15;;;;;;;12.58;60.58;96999.34;4452823;32;20123;-86
2022/01/05 02:42:46;;;;;;;7.87;2.10;;;;;;;12.57;60.56;96995.88;4439435;32;20182;-86
2022/01/05 02:45:13;;;;;;;5.43;2.08;;;;;;;12.70;60.12;97000.03;4439666;32;20356;-86
2022/01/05 02:47:39;;;;;;;9.03;2.50;;;;;;;12.67;60.05;96993.22;4452493;32;20105;-86
2022/01/05 02:50:06;;;;;;;7.97;2.50;;;;;;;12.65;60.07;96996.97;4439642;32;20105;-87
2022/01/05 02:52:32;;;;;;;8.37;2.30;;;;;;;12.63;60.08;97007.66;4454612;32;20135;-87
2022/01/05 02:54:57;;;;;;;6.87;2.05;;;;;;;12.62;60.08;97013.09;4454516;32;20112;-86
2022/01/05 02:57:23;;;;;;;7.47;2.40;;;;;;;12.77;59.62;97015.16;4463085;31;20100;-86
2022/01/05 02:59:49;;;;;;;7.12;2.10;;;;;;;12.79;59.45;97015.84;4489496;31;20237;-87
2022/01/05 03:02:14;;;;;;;9.30;2.60;;;;;;;12.78;59.50;97023.91;4503829;31;20091;-86
2022/01/05 03:04:39;;;;;;;7.50;2.40;;;;;;;12.81;59.37;97015.72;4489333;31;20111;-86
2022/01/05 03:07:05;;;;;;;8.13;2.28;;;;;;;12.81;59.30;97014.91;4503671;31;20148;-86
2022/01/05 03:09:31;;;;;;;7.25;2.20;;;;;;;12.85;59.07;97021.56;4489482;31;20099;-86
2022/01/05 03:11:56;;;;;;;8.95;2.50;;;;;;;12.75;59.26;97018.94;4503778;31;20103;-86
2022/01/05 03:14:22;;;;;;;7.18;2.35;;;;;;;12.85;58.98;97013.63;4489329;31;20445;-86
2022/01/05 03:16:48;;;;;;;8.60;2.50;;;;;;;12.85;58.88;97014.47;4503634;31;20375;-86
2022/01/05 03:19:13;;;;;;;10.40;2.33;;;;;;;12.86;58.79;97017.94;4503645;31;20091;-86
2022/01/05 03:21:39;;;;;;;7.00;2.33;;;;;;;12.85;58.87;97029.50;4503445;31;20400;-86
2022/01/05 03:24:05;;;;;;;7.28;2.42;;;;;;;12.95;58.60;97030.31;4503600;31;20114;-86
2022/01/05 03:26:30;;;;;;;8.18;2.30;;;;;;;12.89;58.66;97029.06;4489281;31;20392;-86
2022/01/05 03:28:55;;;;;;;9.02;2.33;;;;;;;12.97;58.32;97023.88;4503644;31;20122;-86
2022/01/05 03:31:21;;;;;;;7.93;2.50;;;;;;;12.99;58.25;97019.28;4503574;31;20122;-86
2022/01/05 03:33:46;;;;;;;7.35;2.35;;;;;;;13.01;58.19;97020.97;4503410;31;20171;-86
2022/01/05 03:36:12;;;;;;;7.30;2.20;;;;;;;12.97;58.18;97025.72;4503506;31;20136;-86
2022/01/05 03:38:37;;;;;;;7.03;2.17;;;;;;;13.04;58.01;97021.53;4489201;31;20103;-86
2022/01/05 03:41:03;;;;;;;8.13;2.37;;;;;;;13.01;58.01;97024.44;4489171;31;20458;-86
2022/01/05 03:43:28;;;;;;;6.50;2.30;;;;;;;12.97;57.98;97028.34;4489226;31;20096;-87
2022/01/05 03:45:54;;;;;;;7.45;2.35;;;;;;;12.77;58.45;97023.09;4503416;31;20124;-87
2022/01/05 03:48:20;;;;;;;8.23;2.50;;;;;;;12.99;58.03;97018.47;4503570;31;20095;-87
2022/01/05 03:50:46;;;;;;;6.65;2.20;;;;;;;13.00;57.95;97017.50;4489051;31;20114;-86
2022/01/05 03:53:11;;;;;;;8.45;2.30;;;;;;;12.98;57.98;97017.66;4503315;31;20124;-86
2022/01/05 03:55:38;;;;;;;8.05;2.45;;;;;;;12.98;57.87;97017.66;4489023;31;20104;-86
2022/01/05 03:58:04;;;;;;;7.62;2.30;;;;;;;12.99;57.89;97013.19;4503317;31;20171;-87
2022/01/05 04:00:31;;;;;;;8.70;2.60;;;;;;;12.97;57.92;97007.22;4489075;31;20095;-87
2022/01/05 04:03:00;;;;;;;8.45;2.40;;;;;;;13.03;57.75;97005.81;4503351;31;20439;-86
2022/01/05 04:05:25;;;;;;;8.32;2.28;;;;;;;13.00;57.83;97006.94;4489025;31;20111;-87
2022/01/05 04:07:51;;;;;;;7.90;2.45;;;;;;;12.86;58.25;97002.06;4503426;31;20076;-86
2022/01/05 04:10:17;;;;;;;8.40;2.35;;;;;;;13.04;57.78;97002.16;4503325;31;20076;-86
2022/01/05 04:12:43;;;;;;;9.05;2.65;;;;;;;13.04;57.66;97004.81;4489131;31;20080;-86
2022/01/05 04:15:09;;;;;;;7.07;2.40;;;;;;;13.07;57.57;97013.28;4503419;31;20122;-86
2022/01/05 04:17:35;;;;;;;9.70;2.42;;;;;;;13.02;57.73;97009.41;4503290;31;20091;-86
2022/01/05 04:20:01;;;;;;;6.45;2.10;;;;;;;13.06;57.62;97016.94;4503342;31;20114;-86
2022/01/05 04:22:26;;;;;;;7.37;2.17;;;;;;;13.06;57.64;97011.66;4486059;32;20348;-86
2022/01/05 04:24:52;;;;;;;8.38;2.15;;;;;;;13.05;57.64;97007.31;4486402;32;20337;-86
2022/01/05 04:27:17;;;;;;;8.27;2.47;;;;;;;13.12;57.48;97000.50;4487465;31;20114;-86
2022/01/05 04:29:43;;;;;;;7.03;2.35;;;;;;;13.12;57.51;96992.56;4486182;32;20093;-87
2022/01/05 04:32:09;;;;;;;8.90;2.47;;;;;;;13.15;57.48;97004.66;4487390;31;20088;-86
2022/01/05 04:34:34;;;;;;;8.00;2.37;;;;;;;13.23;57.15;97003.94;4487293;32;20389;-86
2022/01/05 04:37:00;;;;;;;9.27;2.35;;;;;;;13.22;57.26;96999.63;4486111;32;20466;-86
2022/01/05 04:39:25;;;;;;;8.35;2.37;;;;;;;13.15;57.34;96994.94;4487425;31;20084;-86
2022/01/05 04:41:50;;;;;;;8.27;2.37;;;;;;;13.18;57.30;96994.62;4487280;31;20080;-86
2022/01/05 04:44:16;;;;;;;6.93;2.05;;;;;;;13.14;57.42;97001.19;4486161;32;20153;-86
2022/01/05 04:46:41;;;;;;;6.53;2.08;;;;;;;13.14;57.44;96998.53;4487275;31;20114;-86
2022/01/05 04:49:07;;;;;;;7.60;2.10;;;;;;;13.15;57.50;96999.34;4487279;31;20140;-86
2022/01/05 04:51:32;;;;;;;6.72;2.35;;;;;;;13.26;57.18;96993.06;4487118;31;20132;-86
2022/01/05 04:53:58;;;;;;;6.82;2.00;;;;;;;13.22;57.30;96995.16;4486070;32;20126;-86
2022/01/05 04:56:23;;;;;;;6.55;2.10;;;;;;;13.11;57.69;96993.53;4487146;31;20110;-87
2022/01/05 04:58:48;;;;;;;7.85;2.20;;;;;;;13.28;57.17;96999.88;4487246;31;20100;-86
2022/01/05 05:01:14;;;;;;;8.52;2.30;;;;;;;13.26;57.18;96993.06;4487191;31;20085;-86
2022/01/05 05:03:40;;;;;;;7.47;2.25;;;;;;;13.22;57.25;96991.69;4487293;31;20402;-86
2022/01/05 05:06:05;;;;;;;7.97;2.30;;;;;;;13.17;57.42;96986.81;4487272;32;20137;-86
2022/01/05 05:08:30;;;;;;;11.12;2.70;;;;;;;13.21;57.33;96979.44;4485799;32;20088;-86
2022/01/05 05:10:56;;;;;;;8.93;2.60;;;;;;;13.21;57.19;96985.56;4487120;31;20104;-87
2022/01/05 05:13:21;;;;;;;9.40;2.67;;;;;;;13.20;57.16;96985.72;4486349;31;20120;-86
2022/01/05 05:15:47;;;;;;;9.30;2.80;;;;;;;13.28;57.00;96994.59;4487081;31;20095;-86
2022/01/05 05:18:12;;;;;;;9.77;2.60;;;;;;;13.27;56.91;96984.16;4485910;32;20084;-87
2022/01/05 05:20:38;;;;;;;9.00;2.90;;;;;;;13.28;56.92;96991.94;4486978;31;20108;-88
2022/01/05 05:23:03;;;;;;;9.52;3.12;;;;;;;13.22;56.97;96997.00;4485770;32;20164;-86
2022/01/05 05:25:29;;;;;;;10.18;2.40;;;;;;;13.23;56.93;96988.06;4485765;32;20447;-86
2022/01/05 05:27:55;;;;;;;7.15;2.37;;;;;;;13.26;56.72;96991.25;4485809;32;20503;-87
2022/01/05 05:30:20;;;;;;;7.93;2.15;;;;;;;13.12;57.03;96997.84;4485737;32;20084;-87
2022/01/05 05:32:46;;;;;;;8.15;2.05;;;;;;;13.12;57.11;96999.66;4485744;32;20116;-88
2022/01/05 05:35:11;;;;;;;7.90;2.47;;;;;;;13.20;56.92;96999.78;4487002;31;20122;-86
2022/01/05 05:37:37;;;;;;;7.65;2.42;;;;;;;13.23;56.90;96993.34;4485552;32;20428;-87
2022/01/05 05:40:04;;;;;;;7.53;2.53;;;;;;;13.12;57.13;97003.13;4486809;31;20416;-87
2022/01/05 05:42:29;;;;;;;7.35;2.08;;;;;;;13.13;57.23;97001.31;4487421;31;20126;-87
2022/01/05 05:44:55;;;;;;;7.35;2.20;;;;;;;13.12;57.27;97000.50;4487190;31;20096;-87
2022/01/05 05:47:20;;;;;;;8.60;2.47;;;;;;;13.20;57.11;97013.00;4487017;31;20103;-87
2022/01/05 05:49:46;;;;;;;8.05;2.20;;;;;;;13.26;56.97;97017.69;4486968;32;20133;-87
2022/01/05 05:52:17;;;;;;;6.37;1.95;;;;;;;13.19;57.18;97016.59;4486939;31;20112;-87
2022/01/05 05:54:42;;;;;;;7.80;2.37;;;;;;;13.16;57.32;97016.91;4487103;31;20179;-87
2022/01/05 05:57:08;;;;;;;7.93;2.33;;;;;;;13.22;57.15;97021.59;4486774;32;20112;-87
2022/01/05 05:59:34;;;;;;;7.57;2.35;;;;;;;13.22;57.19;97026.91;4486746;31;20084;-87
2022/01/05 06:02:00;;;;;;;7.50;2.22;;;;;;;13.21;57.23;97022.56;4486783;31;20100;-86
2022/01/05 06:04:26;;;;;;;7.95;2.33;;;;;;;13.18;57.40;97023.72;4485706;32;20096;-87
2022/01/05 06:06:51;;;;;;;8.15;2.28;;;;;;;13.18;57.43;97022.88;4487013;31;20092;-86
2022/01/05 06:09:17;;;;;;;6.93;2.20;;;;;;;13.19;57.43;97021.87;4485767;32;20076;-87
2022/01/05 06:11:42;;;;;;;9.02;2.30;;;;;;;13.24;57.27;97021.47;4486756;31;20142;-86
2022/01/05 06:14:07;;;;;;;8.38;3.80;;;;;;;13.19;57.36;97021.87;4485496;32;20584;-86
2022/01/05 06:16:33;;;;;;;8.68;2.40;;;;;;;13.24;57.25;97016.19;4486699;31;20128;-86
2022/01/05 06:18:58;;;;;;;8.05;2.45;;;;;;;13.06;57.85;97021.37;4485382;32;20084;-86
2022/01/05 06:21:24;;;;;;;8.63;2.58;;;;;;;13.17;57.49;97013.25;4491181;31;20087;-84
2022/01/05 06:23:52;;;;;;;8.25;2.12;;;;;;;13.17;57.35;97013.25;4502443;31;20088;-91
2022/01/05 06:26:18;;;;;;;8.52;2.28;;;;;;;13.07;57.76;97020.41;4503410;31;20102;-91
2022/01/05 06:28:43;;;;;;;7.45;2.40;;;;;;;13.11;57.69;97019.97;4504376;31;20348;-92
2022/01/05 06:31:08;;;;;;;6.97;2.17;;;;;;;13.17;57.44;97018.56;4490152;31;20104;-91
2022/01/05 06:33:34;;;;;;;8.63;2.30;;;;;;;13.19;57.56;97011.31;4504390;31;20087;-90
2022/01/05 06:35:59;;;;;;;6.60;2.17;;;;;;;13.24;57.42;97017.00;4504260;31;20156;-92
2022/01/05 06:38:25;;;;;;;8.82;2.30;;;;;;;13.20;57.57;97025.38;4504419;31;20088;-92
2022/01/05 06:40:50;;;;;;;6.93;2.05;;;;;;;13.28;57.40;97020.22;4489885;31;20108;-91
2022/01/05 06:43:16;;;;;;;9.23;2.08;;;;;;;13.18;57.71;97021.06;4504821;31;20439;-92
2022/01/05 06:45:41;;;;;;;7.12;2.45;;;;;;;13.20;57.69;97031.50;4504018;31;20091;-88
2022/01/05 06:48:07;;;;;;;8.05;2.60;;;;;;;13.23;57.58;97022.44;4497029;31;20125;-84
2022/01/05 06:50:32;;;;;;;8.02;2.30;;;;;;;13.30;57.43;97023.56;4481466;31;20105;-86
2022/01/05 06:52:58;;;;;;;7.75;2.50;;;;;;;13.30;57.49;97018.28;4474236;32;20110;-87
2022/01/05 06:55:24;;;;;;;6.20;1.98;;;;;;;13.31;57.38;97006.75;4494883;31;20123;-88
2022/01/05 06:57:51;;;;;;;6.85;2.33;;;;;;;13.30;57.45;97013.81;4487535;32;20098;-88
2022/01/05 07:00:17;;;;;;;8.83;2.60;;;;;;;13.09;58.16;97018.44;4487682;31;21764;-88
2022/01/05 07:02:42;;;;;;;10.02;3.20;;;;;;;13.19;57.85;97021.87;4487752;32;20115;-87
2022/01/05 07:05:08;;;;;;;10.10;3.40;;;;;;;13.26;57.10;97025.62;4500633;31;20155;-88
2022/01/05 07:07:35;;;;;;;9.32;3.08;;;;;;;13.27;56.83;97023.81;4495516;31;20102;-85
2022/01/05 07:10:00;;;;;;;7.25;2.37;;;;;;;13.22;56.95;97018.16;4495850;31;20092;-85
2022/01/05 07:12:25;;;;;;;8.38;2.45;;;;;;;13.20;57.46;97018.28;4477841;32;20142;-80
2022/01/05 07:14:51;;;;;;;10.70;3.20;;;;;;;13.24;57.55;97024.12;4500422;31;20441;-86
2022/01/05 07:17:16;;;;;;;7.43;2.45;;;;;;;13.15;57.92;97009.94;4490971;31;20079;-84
2022/01/05 07:19:42;;;;;;;8.93;2.60;;;;;;;13.25;57.79;97021.34;4496982;31;20385;-83
2022/01/05 07:22:07;;;;;;;9.40;2.50;;;;;;;13.39;57.43;97028.00;4496488;31;20100;-88
2022/01/05 07:24:33;;;;;;;6.28;2.08;;;;;;;13.39;57.42;97021.87;4491165;31;20123;-84
2022/01/05 07:26:58;;;;;;;7.32;2.25;;;;;;;13.43;57.34;97034.66;4500153;31;20411;-84
2022/01/05 07:29:23;;;;;;;9.40;2.50;;;;;;;13.44;57.39;97040.78;4491539;31;20092;-83
2022/01/05 07:31:49;;;;;;;7.95;2.30;;;;;;;13.44;57.38;97036.31;4495765;31;20085;-83
2022/01/05 07:34:15;;;;;;;7.87;2.40;;;;;;;13.50;57.24;97027.81;4482681;31;20083;-82
2022/01/05 07:36:41;;;;;;;8.40;2.37;;;;;;;13.55;57.18;97028.19;4475206;32;20095;-87
2022/01/05 07:39:07;;;;;;;9.10;2.70;;;;;;;13.51;57.34;97024.19;4499911;31;20103;-85
2022/01/05 07:41:33;;;;;;;6.82;2.00;;;;;;;13.67;56.76;97030.66;4492230;31;20545;-84
2022/01/05 07:43:59;;;;;;;7.12;2.22;;;;;;;13.85;56.32;97030.72;4490292;31;20096;-87
2022/01/05 07:46:24;;;;;;;9.57;2.28;;;;;;;13.81;56.42;97038.13;4477961;32;20133;-83
2022/01/05 07:48:50;;;;;;;8.60;2.42;;;;;;;13.90;56.24;97031.09;4489908;31;20116;-79
2022/01/05 07:51:15;;;;;;;10.50;2.97;;;;;;;13.89;56.21;97026.81;4489032;31;20100;-81
2022/01/05 07:53:42;;;;;;;12.48;2.95;;;;;;;14.02;55.95;97015.84;4478053;32;20149;-78
2022/01/05 07:56:08;;;;;;;8.40;2.47;;;;;;;14.11;55.64;97007.84;4485061;32;20167;-79
2022/01/05 07:58:35;;;;;;;8.35;2.42;;;;;;;14.01;56.07;97011.56;4474643;31;20122;-80
2022/01/05 08:01:00;;;;;;;7.18;2.30;;;;;;;14.06;55.80;97020.72;4495200;31;20527;-80
2022/01/05 08:03:26;;;;;;;5.50;1.80;;;;;;;14.13;55.62;97016.47;4494906;31;20088;-80
2022/01/05 08:05:51;;;;;;;8.23;2.12;;;;;;;14.21;55.47;97012.25;4490240;31;20136;-79
2022/01/05 08:08:17;;;;;;;8.00;2.00;;;;;;;14.29;55.29;97020.28;4491166;31;20092;-80
2022/01/05 08:10:43;;;;;;;7.75;2.37;;;;;;;14.14;55.68;97028.75;4486639;32;20109;-81
2022/01/05 08:13:08;;;;;;;9.93;2.40;;;;;;;14.20;55.49;97031.75;4473100;32;20550;-80
2022/01/05 08:15:34;;;;;;;9.27;2.40;;;;;;;14.27;55.30;97031.00;4487335;32;20088;-81
2022/01/05 08:17:59;;;;;;;6.47;1.90;;;;;;;14.22;55.35;97041.22;4472811;32;20468;-79
2022/01/05 08:20:25;;;;;;;8.63;2.53;;;;;;;14.38;55.06;97037.09;4487503;32;20080;-79
2022/01/05 08:22:50;;;;;;;10.35;2.55;;;;;;;14.34;55.27;97044.50;4487064;32;20092;-79
2022/01/05 08:25:18;;;;;;;9.23;2.45;;;;;;;14.35;55.21;97040.84;4487295;32;20085;-79
2022/01/05 08:27:47;;;;;;;8.75;2.10;;;;;;;14.38;55.13;97040.56;4487611;32;20100;-79
2022/01/05 08:30:18;;;;;;;6.53;1.98;;;;;;;14.51;54.74;97043.69;4473610;32;20906;-80
2022/01/05 08:32:44;;;;;;;6.37;2.20;;;;;;;14.51;54.74;97027.78;4473004;32;20114;-79
2022/01/05 08:35:11;;;;;;;9.97;2.67;;;;;;;14.42;55.18;97041.91;4472733;32;20146;-81
2022/01/05 08:37:38;;;;;;;8.32;2.33;;;;;;;14.45;55.05;97043.47;4487160;32;20116;-80
2022/01/05 08:40:04;;;;;;;8.50;2.45;;;;;;;14.64;54.71;97042.47;4487167;32;20105;-81
2022/01/05 08:42:29;;;;;;;6.72;2.10;;;;;;;14.68;54.63;97052.66;4487267;32;20100;-81
2022/01/05 08:44:55;;;;;;;6.53;2.03;;;;;;;14.80;54.22;97047.94;4487157;32;20424;-82
2022/01/05 08:47:20;;;;;;;7.10;2.08;;;;;;;14.55;54.93;97047.69;4495817;31;20143;-83
2022/01/05 08:49:46;;;;;;;6.95;2.00;;;;;;;14.86;54.11;97055.28;4487637;31;20072;-84
2022/01/05 08:52:11;;;;;;;9.73;2.20;;;;;;;14.94;53.77;97043.91;4480631;31;20156;-82
2022/01/05 08:54:37;;;;;;;6.97;2.33;;;;;;;14.68;54.50;97057.94;4501342;31;20102;-83
2022/01/05 08:57:03;;;;;;;9.27;2.22;;;;;;;14.65;54.46;97052.94;4488443;31;20144;-85
2022/01/05 08:59:29;;;;;;;11.15;2.60;;;;;;;14.82;54.25;97056.56;4492907;31;20096;-84
2022/01/05 09:01:54;;;;;;;6.75;2.15;;;;;;;14.74;54.31;97049.38;4502046;31;20411;-83
2022/01/05 09:04:20;;;;;;;8.52;2.47;;;;;;;14.90;53.99;97058.47;4487049;31;20080;-83
2022/01/05 09:06:45;;;;;;;8.85;2.28;;;;;;;14.92;53.95;97064.44;4487039;31;20168;-83
2022/01/05 09:09:10;;;;;;;8.10;2.37;;;;;;;15.06;53.62;97069.19;4488616;31;20114;-84
2022/01/05 09:11:36;;;;;;;7.20;2.42;;;;;;;15.16;53.31;97073.56;4502893;31;20099;-83
2022/01/05 09:14:01;;;;;;;8.75;2.80;;;;;;;15.17;53.23;97073.41;4502923;31;20324;-84
2022/01/05 09:16:27;;;;;;;9.43;2.67;;;;;;;15.09;53.41;97071.53;4502854;31;20084;-83
2022/01/05 09:18:52;;;;;;;7.87;2.53;;;;;;;15.08;53.50;97071.69;4502903;31;20080;-83
2022/01/05 09:21:17;;;;;;;9.20;2.42;;;;;;;15.13;53.42;97070.22;4502577;31;20140;-83
2022/01/05 09:23:43;;;;;;;8.55;2.50;;;;;;;15.08;53.47;97076.97;4502841;31;20087;-83
2022/01/05 09:26:09;;;;;;;6.82;2.50;;;;;;;15.07;53.48;97084.13;4502784;31;20374;-84
2022/01/05 09:28:40;;;;;;;9.18;2.30;;;;;;;14.85;53.84;97077.44;4502881;31;20104;-84
2022/01/05 09:31:06;;;;;;;7.22;2.08;;;;;;;14.87;53.59;97087.91;4502921;31;20502;-83
2022/01/05 09:33:31;;;;;;;10.02;2.58;;;;;;;14.50;53.98;97099.47;4502790;31;20096;-84
2022/01/05 09:36:05;;;;;;;7.53;2.60;;;;;;;14.11;54.96;97097.87;4488241;31;20084;-83
2022/01/05 09:43:55;;;;;;;7.55;2.45;;;;;;;14.29;54.46;97111.19;4490518;31;20140;-83
2022/01/05 09:46:48;;;;;;;9.73;2.67;;;;;;;14.39;54.19;97113.78;4488708;31;20126;-83
2022/01/05 09:49:18;;;;;;;7.85;2.53;;;;;;;14.28;54.50;97106.03;4502811;31;20114;-83
2022/01/05 09:51:48;;;;;;;7.12;2.42;;;;;;;14.03;54.64;97116.31;4488258;31;20088;-83
2022/01/05 09:54:14;;;;;;;7.95;2.55;;;;;;;13.85;55.44;97110.13;4488331;31;20084;-83
2022/01/05 09:56:39;;;;;;;8.50;3.17;;;;;;;14.02;55.29;97104.03;4502379;31;20136;-83
2022/01/05 09:59:05;;;;;;;10.23;3.30;;;;;;;13.76;55.62;97106.53;4502422;31;20080;-83
2022/01/05 10:01:39;;;;;;;9.85;3.45;;;;;;;13.98;55.30;97099.19;4502253;31;20106;-84
2022/01/05 10:04:05;;;;;;;8.82;3.17;;;;;;;13.99;55.24;97100.88;4488081;31;20079;-83
2022/01/05 10:06:34;;;;;;;9.15;3.20;;;;;;;13.77;55.68;97118.78;4488211;31;20374;-83
2022/01/05 10:09:00;;;;;;;8.75;3.53;;;;;;;13.85;55.59;97113.63;4502380;31;20491;-83
2022/01/05 10:11:25;;;;;;;8.95;3.83;;;;;;;13.83;55.62;97118.22;4502337;31;20076;-83
2022/01/05 10:13:51;;;;;;;10.00;3.90;;;;;;;13.62;56.09;97123.72;4487977;31;20076;-83
2022/01/05 10:16:16;;;;;;;9.27;3.42;;;;;;;13.35;56.89;97127.13;4502232;31;20137;-82
2022/01/05 10:18:44;;;;;;;8.65;3.05;;;;;;;13.21;57.18;97130.16;4502292;31;20076;-83
2022/01/05 10:21:11;;;;;;;8.82;2.95;;;;;;;13.12;57.48;97122.09;4487877;31;20442;-83
2022/01/05 10:23:45;;;;;;;;;;;;;;;13.01;57.87;97124.88;4488295;31;20229;-83
2022/01/05 10:26:26;;;;;;;7.28;2.60;;;;;;;12.83;58.56;97121.28;4502421;31;19995;-83
2022/01/05 10:29:13;;;;;;;7.45;2.85;;;;;;;13.00;57.68;97120.59;4488083;31;20119;-83
2022/01/05 10:31:40;;;;;;;7.47;2.35;;;;;;;13.07;57.58;97113.75;4501647;31;20088;-83
2022/01/05 10:34:22;;;;;;;5.20;1.70;;;;;;;13.07;57.41;97119.03;4487705;31;20110;-83
2022/01/05 10:36:52;;;;;;;5.50;2.00;;;;;;;12.83;57.59;97127.41;4487674;31;20614;-83
2022/01/05 10:39:31;;;;;;;3.17;1.30;;;;;;;12.78;57.26;97133.09;4502145;31;20667;-82
2022/01/05 10:42:06;;;;;;;3.10;1.30;;;;;;;12.67;57.65;97119.16;4501977;31;20135;-83
2022/01/05 10:44:32;;;;;;;3.33;1.10;;;;;;;12.40;58.09;97115.41;4487492;31;20473;-82
2022/01/05 10:46:58;;;;;;;3.33;1.30;;;;;;;12.32;58.15;97120.50;4487465;31;20108;-83
2022/01/05 10:49:26;;;;;;;3.58;1.10;;;;;;;12.37;58.01;97134.16;4487424;31;20159;-83
2022/01/05 10:51:52;;;;;;;2.17;0.85;;;;;;;12.28;58.04;97141.06;4501807;31;20099;-83
2022/01/05 10:54:24;;;;;;;2.45;1.00;;;;;;;12.41;57.47;97130.25;4487380;31;20332;-83
2022/01/05 10:56:50;;;;;;;1.33;0.70;;;;;;;12.19;57.47;97126.87;4487192;31;20103;-83
2022/01/05 10:59:25;;;;;;;2.50;0.65;;;;;;;12.09;57.46;97133.94;4487352;31;20410;-83
2022/01/05 11:01:51;;;;;;;2.22;0.75;;;;;;;12.04;57.63;97145.88;4501664;31;20088;-83
2022/01/05 11:04:21;;;;;;;1.27;0.70;;;;;;;12.12;57.79;97146.84;4501617;31;20091;-83
2022/01/05 11:07:02;;;;;;;3.30;0.73;;;;;;;12.24;58.19;97142.31;4487234;31;20113;-83
2022/01/05 11:09:28;;;;;;;1.62;0.60;;;;;;;12.03;58.66;97147.66;4501666;31;20507;-83
2022/01/05 11:11:53;;;;;;;1.73;0.60;;;;;;;12.00;58.89;97147.94;4487829;31;20106;-83
2022/01/05 11:14:34;;;;;;;1.10;0.60;;;;;;;11.81;58.67;97146.00;4489462;31;20392;-83
2022/01/05 11:17:02;;;;;;;1.58;0.65;;;;;;;11.75;59.66;97151.81;4489457;31;20127;-83
2022/01/05 11:19:28;;;;;;;;;;;;;;;11.73;59.33;97154.59;4489726;31;20408;-83
2022/01/05 11:22:05;;;;;;;1.33;0.60;;;;;;;11.56;59.92;97155.19;4503734;31;20027;-83
2022/01/05 11:24:41;;;;;;;0.75;0.50;;;;;;;11.54;60.43;97173.78;4503757;31;20098;-83
2022/01/05 11:27:10;;;;;;;1.00;0.50;;;;;;;11.46;60.03;97164.84;4503722;31;20155;-83
2022/01/05 11:29:36;;;;;;;1.85;0.73;;;;;;;11.43;59.76;97165.91;4489432;31;20380;-83
2022/01/05 11:32:07;;;;;;;2.33;0.60;;;;;;;11.58;59.39;97163.78;4489317;31;20127;-83
2022/01/05 11:34:33;;;;;;;1.20;0.60;;;;;;;11.24;60.20;97161.34;4503585;31;20100;-83
2022/01/05 11:37:01;;;;;;;1.45;0.60;;;;;;;11.24;60.04;97166.63;4489127;31;20367;-83
2022/01/05 11:39:27;;;;;;;2.00;0.50;;;;;;;10.86;60.89;97175.91;4489537;31;20130;-82